首页
METAR-TAF:

METAR-TAF

机场 :

Hutchinson County Airport

Borger, 得克萨斯州, 美国

纬度: 35-41-42N, 经度: 101-23-42W, 海拔: 931米

当前天气观测

该预报发布于48分钟前的19:51 UTC
风速13节,风向西转西北,有时为22节阵风
温度 31°C
湿度 12%
气压 1011 hPa
能見度: 16.1公里
天空无云

METAR: KBGD 261951Z AUTO 29013G22KT 10SM CLR 31/M02 A2984 RMK AO2 SLP062 T03061022

时间: 15:39 (20:39 UTC)


TAF: 丢失

超过4000个机场的气象观测和天气预报(METAR&TAF报告)。

可查询的气象台以黄色和红色小点在地图上表示。

将鼠标移到小点上方,可查看气象台名称。

然后点击查看天气观测和预报。

如需切换地图:点击带黑十字的绿色按钮放大地图;点击带横线的绿色按钮缩小地图;或者点击绿色箭头查看邻近地区的地图。


METAR-TAF: